createdAt,value
2023-02-15T00:00:41.248Z,3.88
2023-02-15T00:05:42.949Z,4.02
2023-02-15T00:10:44.267Z,3.91
2023-02-15T00:15:45.639Z,3.90
2023-02-15T00:20:46.934Z,3.93
2023-02-15T00:25:48.251Z,3.82
2023-02-15T00:30:49.721Z,3.97
2023-02-15T00:35:57.447Z,3.92
2023-02-15T00:41:01.348Z,3.89
2023-02-15T00:46:05.457Z,3.94
2023-02-15T00:51:07.101Z,3.97
2023-02-15T00:56:08.535Z,3.92
2023-02-15T01:01:12.612Z,3.87
2023-02-15T01:06:15.973Z,3.93
2023-02-15T01:11:24.977Z,3.92
2023-02-15T01:16:28.754Z,3.95
2023-02-15T01:21:30.311Z,3.79
2023-02-15T01:26:31.665Z,3.87
2023-02-15T01:31:33.051Z,3.90
2023-02-15T01:36:35.356Z,3.86
2023-02-15T01:41:37.177Z,3.83
2023-02-15T01:46:44.394Z,3.83
2023-02-15T01:51:49.703Z,3.85
2023-02-15T01:56:51.715Z,3.88
2023-02-15T02:01:56.219Z,3.83
2023-02-15T02:06:59.882Z,3.89
2023-02-15T02:12:02.202Z,3.87
2023-02-15T02:17:23.069Z,3.88
2023-02-15T02:22:39.459Z,3.94
2023-02-15T02:27:50.325Z,3.72
2023-02-15T02:38:16.163Z,3.91
2023-02-15T02:43:29.619Z,3.84
2023-02-15T02:48:34.773Z,3.84
2023-02-15T02:53:36.380Z,3.75
2023-02-15T02:58:47.203Z,3.72
2023-02-15T03:03:52.489Z,3.61
2023-02-15T03:09:02.170Z,3.60
2023-02-15T03:14:03.579Z,3.75
2023-02-15T03:19:18.043Z,3.88
2023-02-15T03:24:27.399Z,3.84
2023-02-15T03:29:30.882Z,3.81
2023-02-15T03:34:32.470Z,3.78
2023-02-15T03:39:50.802Z,3.74
2023-02-15T03:44:57.959Z,3.84
2023-02-15T03:50:26.169Z,3.70
2023-02-15T03:55:28.775Z,3.67
2023-02-15T04:00:55.031Z,3.63
2023-02-15T04:05:56.512Z,3.53
2023-02-15T04:10:57.997Z,3.49
2023-02-15T04:16:07.236Z,3.66
2023-02-15T04:21:27.625Z,3.57
2023-02-15T04:26:29.033Z,3.56
2023-02-15T04:31:30.450Z,3.49
2023-02-15T04:36:31.922Z,3.21
2023-02-15T04:41:34.340Z,3.35
2023-02-15T04:46:35.684Z,3.40
2023-02-15T04:51:37.453Z,3.27
2023-02-15T04:56:39.937Z,3.36
2023-02-15T05:01:41.636Z,3.39
2023-02-15T05:06:42.945Z,3.35
2023-02-15T05:11:44.325Z,3.47
2023-02-15T05:16:45.745Z,3.39
2023-02-15T05:21:47.093Z,3.44
2023-02-15T05:27:07.043Z,3.38
2023-02-15T05:32:08.620Z,3.58
2023-02-15T05:37:10.189Z,3.42
2023-02-15T05:42:11.483Z,3.54
2023-02-15T05:47:12.832Z,3.27
2023-02-15T05:52:14.174Z,3.44
2023-02-15T05:57:15.570Z,3.47
2023-02-15T06:02:17.015Z,3.38
2023-02-15T06:07:18.656Z,3.37
2023-02-15T06:12:19.997Z,3.47
2023-02-15T06:17:22.487Z,3.33
2023-02-15T06:22:23.857Z,3.56
2023-02-15T06:27:25.190Z,3.50
2023-02-15T06:32:30.281Z,3.43
2023-02-15T06:37:31.858Z,3.16
2023-02-15T06:42:33.193Z,3.46
2023-02-15T06:47:34.537Z,3.42
2023-02-15T06:52:35.864Z,3.52
2023-02-15T06:57:37.364Z,3.39
2023-02-15T07:02:38.835Z,3.38
2023-02-15T07:07:40.416Z,3.47
2023-02-15T07:12:45.753Z,3.34
2023-02-15T07:17:47.740Z,3.30
2023-02-15T07:22:50.065Z,3.11
2023-02-15T07:27:57.884Z,3.23
2023-02-15T07:33:18.495Z,3.31
2023-02-15T07:38:20.045Z,3.40
2023-02-15T07:43:21.426Z,3.54
2023-02-15T07:48:24.936Z,3.45
2023-02-15T07:53:26.644Z,3.28
2023-02-15T07:58:48.329Z,3.27
2023-02-15T08:03:50.285Z,3.38
2023-02-15T08:08:51.656Z,3.35
2023-02-15T08:14:05.956Z,3.47
2023-02-15T08:19:16.491Z,3.48
2023-02-15T08:24:23.724Z,3.46
2023-02-15T08:29:27.943Z,3.29
2023-02-15T08:34:37.708Z,3.00
2023-02-15T08:39:39.072Z,2.95
2023-02-15T08:44:40.467Z,3.10
2023-02-15T08:49:41.803Z,3.34
2023-02-15T08:54:43.219Z,2.82
2023-02-15T08:59:45.584Z,3.15
2023-02-15T09:04:47.252Z,3.11
2023-02-15T09:09:48.656Z,3.15
2023-02-15T09:14:49.990Z,3.05
2023-02-15T09:19:51.479Z,3.08
2023-02-15T09:24:52.765Z,3.05
2023-02-15T09:29:54.070Z,2.98
2023-02-15T09:34:55.430Z,3.03
2023-02-15T09:39:56.865Z,2.85
2023-02-15T09:45:05.082Z,2.96
2023-02-15T09:50:13.740Z,2.76
2023-02-15T09:55:25.330Z,2.96
2023-02-15T10:00:48.656Z,3.09
2023-02-15T10:06:18.037Z,3.15
2023-02-15T10:11:44.168Z,3.10
2023-02-15T10:17:13.892Z,3.07
2023-02-15T10:22:19.419Z,3.07
2023-02-15T10:27:22.585Z,3.17
2023-02-15T10:32:30.207Z,3.18
2023-02-15T10:37:46.805Z,3.19
2023-02-15T10:42:53.260Z,3.11
2023-02-15T10:48:16.378Z,3.45
2023-02-15T10:53:53.465Z,3.34
2023-02-15T10:59:13.654Z,3.32
2023-02-15T11:04:17.976Z,3.21
2023-02-15T11:09:22.950Z,3.29
2023-02-15T11:14:45.996Z,3.49
2023-02-15T11:19:53.365Z,3.61
2023-02-15T11:24:55.442Z,3.57
2023-02-15T11:30:05.215Z,3.70
2023-02-15T11:35:12.591Z,3.68
2023-02-15T11:40:31.286Z,3.75
2023-02-15T11:45:37.635Z,3.81
2023-02-15T11:50:39.484Z,4.03
2023-02-15T11:55:43.825Z,3.89
2023-02-15T12:00:50.421Z,3.92
2023-02-15T12:05:59.339Z,3.84
2023-02-15T12:11:16.306Z,3.85
2023-02-15T12:16:17.806Z,3.90
2023-02-15T12:21:34.890Z,3.79
2023-02-15T12:26:37.841Z,3.93
2023-02-15T12:31:42.816Z,3.93
2023-02-15T12:36:51.671Z,3.99
2023-02-15T12:41:56.184Z,3.97
2023-02-15T12:47:20.197Z,3.98
2023-02-15T12:52:21.488Z,4.11
2023-02-15T12:57:26.234Z,4.22
2023-02-15T13:02:45.183Z,4.04
2023-02-15T13:07:51.137Z,4.08
2023-02-15T13:12:55.106Z,4.20
2023-02-15T13:17:58.674Z,4.32
2023-02-15T13:23:06.098Z,4.37
2023-02-15T13:28:14.787Z,4.27
2023-02-15T13:33:27.207Z,4.48
2023-02-15T13:38:52.779Z,4.50
2023-02-15T13:44:22.314Z,4.65
2023-02-15T13:49:50.438Z,4.57
2023-02-15T13:55:22.968Z,4.53
2023-02-15T14:00:42.072Z,4.38
2023-02-15T14:05:51.089Z,4.39
2023-02-15T14:11:07.084Z,4.56
2023-02-15T14:16:21.325Z,4.58
2023-02-15T14:21:35.720Z,4.53
2023-02-15T14:26:54.790Z,4.56
2023-02-15T14:32:05.159Z,4.63
2023-02-15T14:37:06.904Z,4.31
2023-02-15T14:42:34.360Z,4.56
2023-02-15T14:47:44.157Z,4.54
2023-02-15T14:53:39.954Z,4.58
2023-02-15T14:58:53.353Z,4.67
2023-02-15T15:03:58.363Z,4.55
2023-02-15T15:09:01.952Z,4.50
2023-02-15T15:14:04.251Z,4.47
2023-02-15T15:19:11.133Z,4.51
2023-02-15T15:24:38.476Z,4.41
2023-02-15T15:29:41.375Z,4.48
2023-02-15T15:35:03.739Z,4.52
2023-02-15T15:40:08.126Z,4.50
2023-02-15T15:45:34.476Z,4.07
2023-02-15T15:50:41.217Z,4.32
2023-02-15T15:55:43.918Z,4.37
2023-02-15T16:01:09.947Z,4.47
2023-02-15T16:06:15.698Z,4.35
2023-02-15T16:11:24.545Z,4.38
2023-02-15T16:16:29.409Z,4.29
2023-02-15T16:21:33.043Z,4.37
2023-02-15T16:26:58.874Z,4.31
2023-02-15T16:32:01.414Z,4.26
2023-02-15T16:37:20.582Z,4.30
2023-02-15T16:42:22.706Z,4.32
2023-02-15T16:47:28.343Z,4.09
2023-02-15T16:52:30.560Z,4.06
2023-02-15T16:57:36.094Z,3.94
2023-02-15T17:02:56.046Z,4.03
2023-02-15T17:08:13.214Z,4.01
2023-02-15T17:13:16.571Z,4.02
2023-02-15T17:18:23.683Z,3.96
2023-02-15T17:23:43.362Z,3.99
2023-02-15T17:28:51.716Z,3.96
2023-02-15T17:33:55.711Z,4.00
2023-02-15T17:39:09.686Z,4.05
2023-02-15T17:44:15.261Z,4.10
2023-02-15T17:49:27.712Z,3.93
2023-02-15T17:54:47.786Z,3.82
2023-02-15T18:00:07.800Z,3.84
2023-02-15T18:05:33.315Z,3.93
2023-02-15T18:10:53.230Z,3.93
2023-02-15T18:15:56.418Z,4.09
2023-02-15T18:20:57.816Z,4.07
2023-02-15T18:25:59.132Z,4.06
2023-02-15T18:31:00.992Z,3.80
2023-02-15T18:36:06.601Z,3.86
2023-02-15T18:41:08.015Z,3.81
2023-02-15T18:46:09.847Z,3.78
2023-02-15T18:51:20.221Z,3.76
2023-02-15T18:56:23.291Z,3.79
2023-02-15T19:01:24.668Z,3.45
2023-02-15T19:06:26.106Z,3.60
2023-02-15T19:11:29.544Z,3.64
2023-02-15T19:16:33.798Z,3.57
2023-02-15T19:21:35.158Z,3.63
2023-02-15T19:26:45.685Z,3.77
2023-02-15T19:31:47.570Z,3.89
2023-02-15T19:36:51.903Z,3.65
2023-02-15T19:41:53.913Z,3.64
2023-02-15T19:46:55.891Z,3.48
2023-02-15T19:51:58.599Z,3.50
2023-02-15T19:57:00.521Z,3.47
2023-02-15T20:02:02.614Z,3.47
2023-02-15T20:07:09.954Z,3.50
2023-02-15T20:12:29.927Z,3.66
2023-02-15T20:17:31.238Z,3.55
2023-02-15T20:22:34.590Z,3.56
2023-02-15T20:27:37.365Z,3.60
2023-02-15T20:32:38.694Z,3.73
2023-02-15T20:37:40.357Z,3.68
2023-02-15T20:42:41.769Z,3.73
2023-02-15T20:47:48.221Z,3.70
2023-02-15T20:52:51.651Z,3.77
2023-02-15T20:57:53.372Z,3.62
2023-02-15T21:03:00.152Z,3.63
2023-02-15T21:08:02.029Z,3.41
2023-02-15T21:13:04.516Z,3.66
2023-02-15T21:18:15.767Z,3.67
2023-02-15T21:23:20.542Z,3.60
2023-02-15T21:28:24.269Z,3.56
2023-02-15T21:33:26.579Z,3.50
2023-02-15T21:38:31.002Z,3.67
2023-02-15T21:43:50.844Z,3.67
2023-02-15T21:48:52.148Z,3.66
2023-02-15T21:53:53.534Z,3.82
2023-02-15T21:58:54.899Z,3.68
2023-02-15T22:03:58.546Z,3.72
2023-02-15T22:08:59.904Z,3.63
2023-02-15T22:14:02.055Z,3.60
2023-02-15T22:19:03.638Z,3.52
2023-02-15T22:24:05.276Z,3.56
2023-02-15T22:29:07.208Z,3.54
2023-02-15T22:34:24.765Z,3.52
2023-02-15T22:39:26.336Z,3.58
2023-02-15T22:44:32.057Z,3.58
2023-02-15T22:49:33.508Z,3.36
2023-02-15T22:54:34.797Z,3.66
2023-02-15T22:59:36.175Z,3.48
2023-02-15T23:04:37.514Z,3.61
2023-02-15T23:09:38.849Z,3.72
2023-02-15T23:14:40.231Z,3.74
2023-02-15T23:19:41.561Z,3.72
2023-02-15T23:24:46.134Z,3.66
2023-02-15T23:29:47.478Z,3.54
2023-02-15T23:34:48.775Z,3.52
2023-02-15T23:40:10.079Z,3.44
2023-02-15T23:45:22.048Z,3.66
2023-02-15T23:50:29.088Z,3.44
2023-02-15T23:55:36.401Z,3.35
